Time,TemperatureF,DewpointF,PressureIn,WindDirection,WindDirectionDegrees,WindSpeedMPH,WindSpeedGustMPH,Humidity,HourlyPrecipIn,Conditions,Clouds,dailyrainin,SoftwareType,DateUTC
2015-09-02 00:05:00,80.1,79.5,29.96,SE,135,1.7,-999.0,98,-99.99,,,0.00,Acu-Link.com,2015-09-02 04:05:00,
2015-09-02 00:20:00,79.9,79.3,29.96,SE,135,0.0,-999.0,98,-99.99,,,0.00,Acu-Link.com,2015-09-02 04:20:00,
2015-09-02 00:35:00,79.3,78.7,29.96,South,180,0.0,-999.0,98,-99.99,,,0.00,Acu-Link.com,2015-09-02 04:35:00,
2015-09-02 00:51:00,79.2,78.6,29.96,South,180,0.0,-999.0,98,-99.99,,,0.00,Acu-Link.com,2015-09-02 04:51:00,
2015-09-02 01:06:00,79.0,78.4,29.95,South,180,0.0,-999.0,98,-99.99,,,0.00,Acu-Link.com,2015-09-02 05:06:00,
2015-09-02 01:21:00,78.8,78.2,29.95,SSE,157,0.0,-999.0,98,-99.99,,,0.00,Acu-Link.com,2015-09-02 05:21:00,
2015-09-02 01:36:00,78.8,78.2,29.95,ESE,112,0.0,-999.0,98,-99.99,,,0.00,Acu-Link.com,2015-09-02 05:36:00,
2015-09-02 01:51:00,78.8,78.2,29.94,East,90,1.1,-999.0,98,-99.99,,,0.00,Acu-Link.com,2015-09-02 05:51:00,
2015-09-02 02:07:00,78.8,78.2,29.93,East,90,1.7,-999.0,98,-99.99,,,0.00,Acu-Link.com,2015-09-02 06:07:00,
2015-09-02 02:22:00,78.8,78.2,29.93,East,90,0.0,-999.0,98,-99.99,,,0.00,Acu-Link.com,2015-09-02 06:22:00,
2015-09-02 02:37:00,79.0,78.4,29.92,South,180,0.0,-999.0,98,-99.99,,,0.00,Acu-Link.com,2015-09-02 06:37:00,
2015-09-02 02:52:00,78.8,78.2,29.92,South,180,0.0,-999.0,98,-99.99,,,0.00,Acu-Link.com,2015-09-02 06:52:00,
2015-09-02 03:07:00,78.6,78.0,29.92,South,180,0.0,-999.0,98,-99.99,,,0.00,Acu-Link.com,2015-09-02 07:07:00,
2015-09-02 03:22:00,78.1,77.5,29.92,South,180,0.0,-999.0,98,-99.99,,,0.00,Acu-Link.com,2015-09-02 07:22:00,
2015-09-02 03:37:00,78.1,77.5,29.91,South,180,0.0,-999.0,98,-99.99,,,0.00,Acu-Link.com,2015-09-02 07:37:00,
2015-09-02 03:52:00,78.1,77.5,29.91,South,180,0.0,-999.0,98,-99.99,,,0.00,Acu-Link.com,2015-09-02 07:52:00,
2015-09-02 04:08:00,77.9,77.3,29.91,SE,135,0.0,-999.0,98,-99.99,,,0.00,Acu-Link.com,2015-09-02 08:08:00,
2015-09-02 04:23:00,77.7,77.1,29.91,SE,135,0.0,-999.0,98,-99.99,,,0.00,Acu-Link.com,2015-09-02 08:23:00,
2015-09-02 04:38:00,77.7,77.1,29.92,SSE,157,0.0,-999.0,98,-99.99,,,0.00,Acu-Link.com,2015-09-02 08:38:00,
2015-09-02 04:53:00,77.7,77.1,29.91,SSE,157,0.0,-999.0,98,-99.99,,,0.00,Acu-Link.com,2015-09-02 08:53:00,
2015-09-02 05:08:00,77.7,77.1,29.93,West,270,2.2,-999.0,98,-99.99,,,0.00,Acu-Link.com,2015-09-02 09:08:00,
2015-09-02 05:24:00,77.9,77.3,29.93,West,270,0.0,-999.0,98,-99.99,,,0.00,Acu-Link.com,2015-09-02 09:24:00,
2015-09-02 05:39:00,78.1,77.5,29.93,WNW,292,0.0,-999.0,98,-99.99,,,0.00,Acu-Link.com,2015-09-02 09:39:00,
2015-09-02 05:54:00,78.3,77.7,29.93,WNW,292,0.0,-999.0,98,-99.99,,,0.00,Acu-Link.com,2015-09-02 09:54:00,
2015-09-02 06:10:00,78.3,77.7,29.94,NE,45,0.0,-999.0,98,-99.99,,,0.00,Acu-Link.com,2015-09-02 10:10:00,
2015-09-02 06:25:00,78.6,78.0,29.94,West,270,0.0,-999.0,98,-99.99,,,0.00,Acu-Link.com,2015-09-02 10:25:00,
2015-09-02 06:40:00,78.6,78.0,29.95,West,270,0.0,-999.0,98,-99.99,,,0.00,Acu-Link.com,2015-09-02 10:40:00,
2015-09-02 06:56:00,78.3,77.7,29.94,West,270,0.0,-999.0,98,-99.99,,,0.00,Acu-Link.com,2015-09-02 10:56:00,
2015-09-02 07:11:00,78.3,77.7,29.95,West,270,0.0,-999.0,98,-99.99,,,0.00,Acu-Link.com,2015-09-02 11:11:00,
2015-09-02 07:26:00,78.8,78.2,29.95,West,270,0.0,-999.0,98,-99.99,,,0.00,Acu-Link.com,2015-09-02 11:26:00,
2015-09-02 07:41:00,79.9,79.3,29.96,West,270,0.0,-999.0,98,-99.99,,,0.00,Acu-Link.com,2015-09-02 11:41:00,
2015-09-02 07:57:00,82.0,81.4,29.96,NNW,337,0.0,-999.0,98,-99.99,,,0.00,Acu-Link.com,2015-09-02 11:57:00,
2015-09-02 08:12:00,84.0,83.4,29.95,NNW,337,0.0,-999.0,98,-99.99,,,0.00,Acu-Link.com,2015-09-02 12:12:00,
2015-09-02 08:27:00,85.8,83.2,29.96,SE,135,0.0,-999.0,92,-99.99,,,0.00,Acu-Link.com,2015-09-02 12:27:00,
2015-09-02 08:43:00,86.5,82.9,29.96,SSW,202,0.0,-999.0,89,-99.99,,,0.00,Acu-Link.com,2015-09-02 12:43:00,
2015-09-02 08:58:00,88.3,82.8,29.95,South,180,1.1,-999.0,84,-99.99,,,0.00,Acu-Link.com,2015-09-02 12:58:00,
2015-09-02 09:13:00,89.2,81.8,29.94,NE,45,0.0,-999.0,79,-99.99,,,0.00,Acu-Link.com,2015-09-02 13:13:00,
2015-09-02 09:28:00,87.6,81.8,29.95,SSW,202,0.0,-999.0,83,-99.99,,,0.00,Acu-Link.com,2015-09-02 13:28:00,
2015-09-02 09:43:00,89.6,81.8,29.94,NNE,22,2.2,-999.0,78,-99.99,,,0.00,Acu-Link.com,2015-09-02 13:43:00,
2015-09-02 09:59:00,89.6,82.2,29.95,South,180,1.1,-999.0,79,-99.99,,,0.00,Acu-Link.com,2015-09-02 13:59:00,
2015-09-02 10:14:00,88.2,81.2,29.96,SSW,202,1.1,-999.0,80,-99.99,,,0.00,Acu-Link.com,2015-09-02 14:14:00,
2015-09-02 10:29:00,87.6,80.6,29.97,WSW,247,0.0,-999.0,80,-99.99,,,0.00,Acu-Link.com,2015-09-02 14:29:00,
2015-09-02 10:44:00,88.7,81.7,29.95,NE,45,2.2,-999.0,80,-99.99,,,0.00,Acu-Link.com,2015-09-02 14:44:00,
2015-09-02 10:59:00,89.4,81.6,29.94,ESE,112,0.0,-999.0,78,-99.99,,,0.00,Acu-Link.com,2015-09-02 14:59:00,
2015-09-02 11:14:00,84.6,79.9,29.95,SW,225,1.7,-999.0,86,-99.99,,,0.00,Acu-Link.com,2015-09-02 15:14:00,
2015-09-02 11:29:00,86.0,78.7,29.96,South,180,1.1,-999.0,79,-99.99,,,0.00,Acu-Link.com,2015-09-02 15:29:00,
2015-09-02 11:44:00,88.5,79.5,29.92,SW,225,3.2,-999.0,75,-99.99,,,0.00,Acu-Link.com,2015-09-02 15:44:00,
2015-09-02 11:59:00,89.8,80.4,29.92,North,0,2.7,-999.0,74,-99.99,,,0.00,Acu-Link.com,2015-09-02 15:59:00,
2015-09-02 12:14:00,91.9,79.8,29.90,East,90,1.7,-999.0,68,-99.99,,,0.00,Acu-Link.com,2015-09-02 16:14:00,